createdAt,value
2018-09-20T00:01:46.471Z,99059.55
2018-09-20T00:04:16.908Z,99059.41
2018-09-20T00:06:47.239Z,99055.56
2018-09-20T00:09:17.675Z,99057.70
2018-09-20T00:11:48.104Z,99049.08
2018-09-20T00:14:18.598Z,99051.73
2018-09-20T00:16:49.291Z,99052.56
2018-09-20T00:19:19.870Z,99050.05
2018-09-20T00:21:50.217Z,99045.42
2018-09-20T00:24:20.749Z,99044.75
2018-09-20T00:26:51.289Z,99043.76
2018-09-20T00:29:21.877Z,99046.73
2018-09-20T00:31:52.551Z,99036.97
2018-09-20T00:34:23.222Z,99045.76
2018-09-20T00:36:53.790Z,99042.63
2018-09-20T00:39:24.277Z,99038.45
2018-09-20T00:41:54.710Z,99040.92
2018-09-20T00:44:26.371Z,99040.55
2018-09-20T00:46:56.876Z,99035.77
2018-09-20T00:49:27.361Z,99035.30
2018-09-20T00:51:57.893Z,99035.11
2018-09-20T00:54:28.376Z,99028.48
2018-09-20T00:56:58.840Z,99029.33
2018-09-20T00:59:29.367Z,99023.48
2018-09-20T01:01:59.798Z,99027.30
2018-09-20T01:04:30.280Z,99020.84
2018-09-20T01:07:00.671Z,99023.17
2018-09-20T01:09:31.731Z,99024.47
2018-09-20T01:12:02.239Z,99026.73
2018-09-20T01:14:32.764Z,99025.75
2018-09-20T01:17:03.354Z,99011.96
2018-09-20T01:19:33.831Z,99017.06
2018-09-20T01:22:04.298Z,99018.91
2018-09-20T01:24:34.836Z,99017.06
2018-09-20T01:27:05.314Z,99018.07
2018-09-20T01:29:35.775Z,99021.02
2018-09-20T01:32:07.281Z,99021.34
2018-09-20T01:34:37.800Z,99018.34
2018-09-20T01:37:08.401Z,99022.98
2018-09-20T01:39:38.985Z,99014.72
2018-09-20T01:42:09.482Z,99018.99
2018-09-20T01:44:39.924Z,99018.50
2018-09-20T01:47:10.399Z,99017.66
2018-09-20T01:49:41.725Z,99022.75
2018-09-20T01:52:12.142Z,99018.84
2018-09-20T01:54:42.719Z,99019.66
2018-09-20T01:57:13.160Z,99011.17
2018-09-20T01:59:43.609Z,99010.84
2018-09-20T02:02:14.094Z,99013.14
2018-09-20T02:04:44.509Z,99021.08
2018-09-20T02:07:14.962Z,99015.11
2018-09-20T02:09:45.488Z,99015.78
2018-09-20T02:12:15.994Z,99011.00
2018-09-20T02:14:49.179Z,99011.49
2018-09-20T02:17:19.750Z,99011.33
2018-09-20T02:19:50.296Z,99011.69
2018-09-20T02:22:20.777Z,99009.06
2018-09-20T02:24:51.359Z,99010.42
2018-09-20T02:27:21.858Z,99014.58
2018-09-20T02:29:52.287Z,99017.39
2018-09-20T02:32:22.748Z,99019.06
2018-09-20T02:34:53.029Z,99010.64
2018-09-20T02:37:23.416Z,99011.96
2018-09-20T02:39:54.357Z,99011.96
2018-09-20T02:42:24.728Z,99013.77
2018-09-20T02:44:55.198Z,99016.91
2018-09-20T02:47:25.725Z,99008.96
2018-09-20T02:49:56.351Z,99017.61
2018-09-20T02:52:26.886Z,99017.13
2018-09-20T02:54:57.525Z,99018.97
2018-09-20T02:57:27.683Z,99008.20
2018-09-20T02:59:58.113Z,99013.38
2018-09-20T03:02:28.627Z,99015.66
2018-09-20T03:04:59.106Z,99008.08
2018-09-20T03:07:29.604Z,99003.23
2018-09-20T03:10:00.053Z,99003.50
2018-09-20T03:12:30.482Z,99005.70
2018-09-20T03:15:00.976Z,99001.18
2018-09-20T03:17:31.435Z,99007.61
2018-09-20T03:20:01.894Z,99006.73
2018-09-20T03:22:32.354Z,99014.84
2018-09-20T03:25:02.731Z,99016.36
2018-09-20T03:27:34.112Z,99017.17
2018-09-20T03:30:04.663Z,99015.91
2018-09-20T03:32:35.269Z,99019.29
2018-09-20T03:35:06.175Z,99017.64
2018-09-20T03:37:36.603Z,99017.83
2018-09-20T03:40:07.063Z,99014.37
2018-09-20T03:42:37.505Z,99012.08
2018-09-20T03:45:07.980Z,99011.59
2018-09-20T03:47:38.437Z,99012.91
2018-09-20T03:50:09.156Z,99010.42
2018-09-20T03:52:39.693Z,99013.07
2018-09-20T03:55:10.190Z,99008.10
2018-09-20T03:57:40.715Z,99010.10
2018-09-20T04:00:11.326Z,99009.77
2018-09-20T04:02:41.676Z,99008.13
2018-09-20T04:05:12.129Z,99012.09
2018-09-20T04:07:42.600Z,99009.45
2018-09-20T04:10:13.268Z,99007.94
2018-09-20T04:12:43.782Z,99008.10
2018-09-20T04:15:14.271Z,99014.05
2018-09-20T04:17:44.818Z,99010.08
2018-09-20T04:20:15.260Z,99011.40
2018-09-20T04:22:45.671Z,99010.05
2018-09-20T04:25:16.446Z,99019.61
2018-09-20T04:27:48.016Z,99008.86
2018-09-20T04:30:18.501Z,99011.50
2018-09-20T04:32:48.996Z,99021.31
2018-09-20T04:35:22.707Z,99022.64
2018-09-20T04:37:53.192Z,99017.34
2018-09-20T04:40:23.727Z,99025.27
2018-09-20T04:42:54.277Z,99022.42
2018-09-20T04:45:24.745Z,99027.84
2018-09-20T04:47:55.396Z,99031.82
2018-09-20T04:50:25.882Z,99022.91
2018-09-20T04:52:56.040Z,99029.17
2018-09-20T04:55:26.599Z,99023.88
2018-09-20T04:57:56.837Z,99034.95
2018-09-20T05:00:27.006Z,99018.58
2018-09-20T05:02:57.204Z,99020.94
2018-09-20T05:05:27.473Z,99018.64
2018-09-20T05:07:58.671Z,99027.91
2018-09-20T05:10:28.861Z,99028.04
2018-09-20T05:12:59.131Z,99036.66
2018-09-20T05:15:29.451Z,99029.36
2018-09-20T05:17:59.639Z,99033.20
2018-09-20T05:20:30.231Z,99033.36
2018-09-20T05:23:00.708Z,99035.94
2018-09-20T05:25:31.240Z,99037.94
2018-09-20T05:28:02.555Z,99032.13
2018-09-20T05:30:33.053Z,99038.59
2018-09-20T05:33:03.493Z,99041.42
2018-09-20T05:35:34.119Z,99036.28
2018-09-20T05:38:05.300Z,99038.47
2018-09-20T05:40:36.204Z,99036.66
2018-09-20T05:43:06.783Z,99040.17
2018-09-20T05:45:37.431Z,99036.71
2018-09-20T05:48:08.314Z,99045.03
2018-09-20T05:50:38.887Z,99035.95
2018-09-20T05:53:09.602Z,99041.08
2018-09-20T05:55:40.188Z,99042.08
2018-09-20T05:58:10.624Z,99042.45
2018-09-20T06:00:48.396Z,99048.91
2018-09-20T06:03:18.899Z,99051.77
2018-09-20T06:05:49.498Z,99054.81
2018-09-20T06:08:19.973Z,99052.50
2018-09-20T06:10:50.639Z,99050.70
2018-09-20T06:13:21.193Z,99045.77
2018-09-20T06:15:51.487Z,99048.00
2018-09-20T06:18:21.803Z,99051.48
2018-09-20T06:20:52.049Z,99047.87
2018-09-20T06:23:22.222Z,99048.91
2018-09-20T06:25:55.318Z,99046.08
2018-09-20T06:28:28.412Z,99051.20
2018-09-20T06:31:01.833Z,99060.32
2018-09-20T06:33:35.871Z,99059.02
2018-09-20T06:36:10.264Z,99058.06
2018-09-20T06:38:40.507Z,99058.25
2018-09-20T06:41:10.916Z,99050.80
2018-09-20T06:43:41.076Z,99050.81
2018-09-20T06:46:11.253Z,99053.16
2018-09-20T06:48:41.858Z,99052.18
2018-09-20T06:51:13.856Z,99050.33
2018-09-20T06:53:44.637Z,99057.98
2018-09-20T06:56:15.962Z,99066.13
2018-09-20T06:58:46.627Z,99052.67
2018-09-20T07:01:18.035Z,99054.17
2018-09-20T07:03:49.232Z,99054.84
2018-09-20T07:06:20.175Z,99053.52
2018-09-20T07:08:50.958Z,99057.19
2018-09-20T07:11:21.691Z,99057.05
2018-09-20T07:13:52.537Z,99054.73
2018-09-20T07:16:23.462Z,99059.52
2018-09-20T07:18:54.072Z,99061.67
2018-09-20T07:21:24.782Z,99065.83
2018-09-20T07:23:56.416Z,99064.68
2018-09-20T07:26:27.158Z,99069.65
2018-09-20T07:28:57.836Z,99064.16
2018-09-20T07:31:29.065Z,99067.51
2018-09-20T07:34:00.802Z,99068.48
2018-09-20T07:36:31.273Z,99070.45
2018-09-20T07:39:05.706Z,99079.60
2018-09-20T07:41:36.309Z,99077.12
2018-09-20T07:44:08.277Z,99075.09
2018-09-20T07:46:39.054Z,99081.87
2018-09-20T07:49:10.481Z,99081.31
2018-09-20T07:51:41.212Z,99078.73
2018-09-20T07:54:11.767Z,99079.49
2018-09-20T07:56:42.570Z,99077.91
2018-09-20T07:59:13.548Z,99077.19
2018-09-20T08:01:44.387Z,99077.41
2018-09-20T08:04:14.921Z,99079.45
2018-09-20T08:06:49.888Z,99082.01
2018-09-20T08:09:21.291Z,99083.41
2018-09-20T08:11:51.976Z,99087.06
2018-09-20T08:14:22.794Z,99091.28
2018-09-20T08:16:53.370Z,99092.94
2018-09-20T08:19:24.378Z,99096.99
2018-09-20T08:21:56.109Z,99088.83
2018-09-20T08:24:26.806Z,99093.95
2018-09-20T08:26:57.507Z,99100.17
2018-09-20T08:29:27.956Z,99098.02
2018-09-20T08:31:58.622Z,99107.30
2018-09-20T08:34:29.051Z,99105.02
2018-09-20T08:36:59.593Z,99107.05
2018-09-20T08:39:30.147Z,99105.13
2018-09-20T08:42:00.636Z,99108.27
2018-09-20T08:44:31.151Z,99110.61
2018-09-20T08:47:01.648Z,99108.13
2018-09-20T08:49:32.302Z,99107.00
2018-09-20T08:52:02.898Z,99103.69
2018-09-20T08:54:36.063Z,99103.05
2018-09-20T08:57:09.562Z,99104.69
2018-09-20T08:59:40.235Z,99100.45
2018-09-20T09:02:10.672Z,99101.00
2018-09-20T09:04:41.240Z,99094.41
2018-09-20T09:07:11.810Z,99091.61
2018-09-20T09:09:42.400Z,99092.25
2018-09-20T09:12:12.843Z,99091.70
2018-09-20T09:14:43.330Z,99093.70
2018-09-20T09:17:14.064Z,99091.19
2018-09-20T09:19:44.807Z,99099.73
2018-09-20T09:22:16.285Z,99094.65
2018-09-20T09:24:48.232Z,99095.83
2018-09-20T09:27:19.990Z,99086.66
2018-09-20T09:29:51.125Z,99088.95
2018-09-20T09:32:22.354Z,99085.66
2018-09-20T09:34:52.855Z,99087.12
2018-09-20T09:37:23.352Z,99084.22
2018-09-20T09:39:54.141Z,99083.31
2018-09-20T09:42:25.643Z,99080.16
2018-09-20T09:44:56.206Z,99072.76
2018-09-20T09:47:26.667Z,99069.67
2018-09-20T09:49:57.290Z,99069.58
2018-09-20T09:52:27.937Z,99068.34
2018-09-20T09:54:58.887Z,99067.71
2018-09-20T09:57:29.435Z,99068.44
2018-09-20T10:00:00.731Z,99071.53
2018-09-20T10:02:31.703Z,99059.09
2018-09-20T10:05:02.233Z,99065.59
2018-09-20T10:07:32.869Z,99055.19
2018-09-20T10:10:03.470Z,99057.03
2018-09-20T10:12:33.888Z,99062.35
2018-09-20T10:15:05.330Z,99054.88
2018-09-20T10:17:36.292Z,99053.44
2018-09-20T10:20:06.923Z,99052.95
2018-09-20T10:22:38.263Z,99053.31
2018-09-20T10:25:08.864Z,99049.88
2018-09-20T10:27:39.517Z,99051.49
2018-09-20T10:30:10.251Z,99049.08
2018-09-20T10:32:40.598Z,99051.12
2018-09-20T10:35:39.180Z,99044.52
2018-09-20T10:38:09.782Z,99045.91
2018-09-20T10:40:40.404Z,99049.67
2018-09-20T10:43:11.607Z,99038.56
2018-09-20T10:45:42.328Z,99037.94
2018-09-20T10:48:14.200Z,99044.27
2018-09-20T10:50:45.625Z,99043.92
2018-09-20T10:53:16.953Z,99040.23
2018-09-20T10:55:47.643Z,99043.84
2018-09-20T10:58:18.279Z,99045.98
2018-09-20T11:00:49.312Z,99040.39
2018-09-20T11:03:20.280Z,99037.21
2018-09-20T11:05:50.948Z,99040.61
2018-09-20T11:08:21.556Z,99039.23
2018-09-20T11:10:52.156Z,99034.28
2018-09-20T11:13:22.676Z,99034.75
2018-09-20T11:15:53.431Z,99028.02
2018-09-20T11:18:24.570Z,99034.35
2018-09-20T11:20:55.255Z,99034.41
2018-09-20T11:23:25.974Z,99028.30
2018-09-20T11:25:57.096Z,99025.59
2018-09-20T11:28:27.852Z,99025.56
2018-09-20T11:30:58.426Z,99025.49
2018-09-20T11:33:28.980Z,99030.33
2018-09-20T11:35:59.844Z,99018.92
2018-09-20T11:38:30.949Z,99022.95
2018-09-20T11:41:02.141Z,99017.81
2018-09-20T11:43:32.703Z,99012.53
2018-09-20T11:46:03.411Z,99016.05
2018-09-20T11:48:34.674Z,99010.64
2018-09-20T11:51:05.380Z,99003.91
2018-09-20T11:53:36.406Z,99005.11
2018-09-20T11:56:07.531Z,99006.82
2018-09-20T11:58:38.478Z,99004.13
2018-09-20T12:01:09.508Z,99000.76
2018-09-20T12:03:41.277Z,98993.81
2018-09-20T12:06:11.776Z,98992.23
2018-09-20T12:08:42.583Z,98993.52
2018-09-20T12:11:13.224Z,98991.19
2018-09-20T12:13:44.140Z,98981.23
2018-09-20T12:16:15.606Z,98979.45
2018-09-20T12:18:47.075Z,98976.93
2018-09-20T12:21:17.894Z,98976.93
2018-09-20T12:23:48.554Z,98967.94
2018-09-20T12:26:19.228Z,98969.20
2018-09-20T12:28:49.738Z,98974.26
2018-09-20T12:31:20.438Z,98972.55
2018-09-20T12:33:52.294Z,98972.06
2018-09-20T12:36:23.201Z,98970.09
2018-09-20T12:38:53.820Z,98967.33
2018-09-20T12:41:24.668Z,98968.57
2018-09-20T12:43:55.634Z,98965.30
2018-09-20T12:46:26.566Z,98958.54
2018-09-20T12:48:57.568Z,98957.14
2018-09-20T12:51:27.996Z,98953.60
2018-09-20T12:53:58.679Z,98945.45
2018-09-20T12:56:30.850Z,98947.52
2018-09-20T12:59:01.809Z,98945.20
2018-09-20T13:01:32.531Z,98942.44
2018-09-20T13:04:03.441Z,98940.45
2018-09-20T13:06:34.246Z,98938.70
2018-09-20T13:09:07.437Z,98934.14
2018-09-20T13:11:38.248Z,98939.69
2018-09-20T13:14:09.294Z,98932.16
2018-09-20T13:16:40.375Z,98933.11
2018-09-20T13:19:11.832Z,98932.27
2018-09-20T13:21:42.530Z,98934.30
2018-09-20T13:24:13.253Z,98927.61
2018-09-20T13:26:44.824Z,98927.37
2018-09-20T13:29:15.569Z,98922.06
2018-09-20T13:31:46.456Z,98923.20
2018-09-20T13:34:17.165Z,98923.50
2018-09-20T13:36:48.187Z,98917.20
2018-09-20T13:39:18.829Z,98914.05
2018-09-20T13:41:50.092Z,98918.23
2018-09-20T13:44:21.214Z,98923.01
2018-09-20T13:46:52.223Z,98913.06
2018-09-20T13:49:22.816Z,98906.63
2018-09-20T13:51:53.616Z,98905.21
2018-09-20T13:54:24.294Z,98899.84
2018-09-20T13:56:54.985Z,98897.73
2018-09-20T13:59:25.772Z,98894.00
2018-09-20T14:01:56.592Z,98900.27
2018-09-20T14:04:27.651Z,98894.97
2018-09-20T14:06:58.371Z,98901.65
2018-09-20T14:09:29.314Z,98898.13
2018-09-20T14:12:00.100Z,98895.32
2018-09-20T14:14:31.170Z,98886.08
2018-09-20T14:17:01.951Z,98885.06
2018-09-20T14:19:35.734Z,98892.24
2018-09-20T14:22:06.265Z,98887.59
2018-09-20T14:24:36.915Z,98887.50
2018-09-20T14:27:07.985Z,98881.06
2018-09-20T14:29:38.698Z,98881.45
2018-09-20T14:32:09.850Z,98874.67
2018-09-20T14:34:40.912Z,98870.64
2018-09-20T14:37:12.632Z,98876.80
2018-09-20T14:39:43.229Z,98871.88
2018-09-20T14:42:13.968Z,98865.64
2018-09-20T14:44:45.408Z,98862.24
2018-09-20T14:47:16.096Z,98864.52
2018-09-20T14:49:46.899Z,98861.09
2018-09-20T14:52:17.538Z,98870.02
2018-09-20T14:54:48.500Z,98862.50
2018-09-20T14:57:19.278Z,98862.09
2018-09-20T14:59:50.398Z,98854.91
2018-09-20T15:02:21.180Z,98862.53
2018-09-20T15:04:51.950Z,98856.39
2018-09-20T15:07:23.554Z,98856.42
2018-09-20T15:09:54.311Z,98858.27
2018-09-20T15:12:25.614Z,98863.36
2018-09-20T15:14:56.369Z,98863.61
2018-09-20T15:17:28.348Z,98858.14
2018-09-20T15:19:59.014Z,98857.77
2018-09-20T15:22:29.828Z,98857.53
2018-09-20T15:25:01.273Z,98859.59
2018-09-20T15:27:32.845Z,98864.26
2018-09-20T15:30:04.840Z,98862.18
2018-09-20T15:32:35.549Z,98862.52
2018-09-20T15:35:06.476Z,98861.50
2018-09-20T15:37:37.278Z,98860.05
2018-09-20T15:40:08.595Z,98858.20
2018-09-20T15:42:39.741Z,98856.63
2018-09-20T15:45:11.452Z,98855.88
2018-09-20T15:47:42.476Z,98859.09
2018-09-20T15:50:13.272Z,98859.13
2018-09-20T15:52:44.775Z,98858.09
2018-09-20T15:55:15.757Z,98855.31
2018-09-20T15:57:46.372Z,98855.22
2018-09-20T16:00:17.254Z,98852.47
2018-09-20T16:02:47.767Z,98854.97
2018-09-20T16:05:18.474Z,98856.61
2018-09-20T16:07:49.096Z,98856.16
2018-09-20T16:10:20.521Z,98854.51
2018-09-20T16:12:51.370Z,98849.05
2018-09-20T16:15:22.540Z,98849.56
2018-09-20T16:17:53.322Z,98853.66
2018-09-20T16:20:24.051Z,98844.30
2018-09-20T16:22:55.919Z,98847.61
2018-09-20T16:25:26.506Z,98850.75
2018-09-20T16:28:01.587Z,98845.89
2018-09-20T16:36:04.362Z,98848.27
2018-09-20T16:38:53.243Z,98843.59
2018-09-20T16:41:32.563Z,98847.95
2018-09-20T16:44:03.240Z,98842.45
2018-09-20T16:46:33.971Z,98846.89
2018-09-20T16:49:04.760Z,98845.99
2018-09-20T16:51:35.758Z,98844.77
2018-09-20T16:54:06.775Z,98844.66
2018-09-20T16:56:37.336Z,98847.83
2018-09-20T16:59:08.238Z,98851.34
2018-09-20T17:01:39.929Z,98844.56
2018-09-20T17:04:11.498Z,98849.81
2018-09-20T17:06:44.801Z,98847.35
2018-09-20T17:09:16.240Z,98848.69
2018-09-20T17:11:47.546Z,98850.30
2018-09-20T17:14:18.655Z,98851.03
2018-09-20T17:16:49.476Z,98849.55
2018-09-20T17:19:20.225Z,98845.81
2018-09-20T17:21:51.399Z,98848.84
2018-09-20T17:24:22.811Z,98845.48
2018-09-20T17:26:56.499Z,98851.26
2018-09-20T17:29:27.345Z,98847.25
2018-09-20T17:31:58.823Z,98847.27
2018-09-20T17:35:17.937Z,98847.29
2018-09-20T17:37:50.632Z,98851.27
2018-09-20T17:40:23.234Z,98850.06
2018-09-20T17:42:57.684Z,98849.87
2018-09-20T17:45:28.928Z,98852.52
2018-09-20T17:47:59.983Z,98858.91
2018-09-20T17:50:30.937Z,98867.57
2018-09-20T17:53:02.689Z,98862.02
2018-09-20T17:55:35.311Z,98856.64
2018-09-20T17:58:06.243Z,98860.50
2018-09-20T18:00:37.126Z,98857.72
2018-09-20T18:03:08.060Z,98862.83
2018-09-20T18:05:39.126Z,98863.13
2018-09-20T18:08:10.354Z,98864.38
2018-09-20T18:10:41.670Z,98869.45
2018-09-20T18:13:14.235Z,98867.34
2018-09-20T18:15:44.885Z,98873.58
2018-09-20T18:18:17.693Z,98873.95
2018-09-20T18:20:49.173Z,98877.41
2018-09-20T18:23:20.260Z,98888.27
2018-09-20T18:25:50.985Z,98886.78
2018-09-20T18:28:22.038Z,98884.31
2018-09-20T18:30:57.832Z,98889.97
2018-09-20T18:33:28.680Z,98896.14
2018-09-20T18:35:59.340Z,98900.87
2018-09-20T18:38:29.941Z,98905.59
2018-09-20T18:41:00.451Z,98909.47
2018-09-20T18:43:31.207Z,98913.69
2018-09-20T18:46:02.645Z,98917.03
2018-09-20T18:48:33.511Z,98909.39
2018-09-20T18:51:05.862Z,98913.38
2018-09-20T18:53:36.625Z,98911.71
2018-09-20T18:56:08.506Z,98910.72
2018-09-20T18:58:39.926Z,98914.25
2018-09-20T19:01:11.733Z,98913.27
2018-09-20T19:03:43.197Z,98910.45
2018-09-20T19:06:15.459Z,98909.16
2018-09-20T19:08:56.040Z,98915.62
2018-09-20T19:11:35.037Z,98912.27
2018-09-20T19:14:10.276Z,98911.78
2018-09-20T19:16:43.090Z,98910.11
2018-09-20T19:19:14.709Z,98913.45
2018-09-20T19:21:46.742Z,98906.34
2018-09-20T19:24:18.941Z,98904.20
2018-09-20T19:26:54.985Z,98908.57
2018-09-20T19:29:28.972Z,98916.05
2018-09-20T19:32:01.420Z,98910.61
2018-09-20T19:34:35.163Z,98912.98
2018-09-20T19:37:10.503Z,98910.85
2018-09-20T19:39:44.397Z,98913.20
2018-09-20T19:42:22.549Z,98911.74
2018-09-20T19:44:55.786Z,98918.73
2018-09-20T19:47:27.620Z,98908.27
2018-09-20T19:49:59.607Z,98912.27
2018-09-20T19:52:36.153Z,98911.77
2018-09-20T19:55:12.681Z,98912.42
2018-09-20T19:57:46.107Z,98917.89
2018-09-20T20:00:19.465Z,98914.09
2018-09-20T20:02:51.900Z,98915.44
2018-09-20T20:05:23.981Z,98916.46
2018-09-20T20:07:55.648Z,98910.49
2018-09-20T20:10:26.863Z,98918.59
2018-09-20T20:12:58.037Z,98912.97
2018-09-20T20:15:29.791Z,98917.95
2018-09-20T20:18:03.067Z,98909.80
2018-09-20T20:20:35.282Z,98909.16
2018-09-20T20:23:06.174Z,98905.19
2018-09-20T20:25:37.222Z,98903.58
2018-09-20T20:28:08.146Z,98909.57
2018-09-20T20:30:38.892Z,98909.72
2018-09-20T20:33:09.887Z,98909.25
2018-09-20T20:35:41.783Z,98913.60
2018-09-20T20:38:12.617Z,98910.75
2018-09-20T20:40:43.437Z,98916.40
2018-09-20T20:43:14.252Z,98912.42
2018-09-20T20:45:45.235Z,98917.09
2018-09-20T20:48:16.785Z,98922.91
2018-09-20T20:50:47.612Z,98924.25
2018-09-20T20:53:18.700Z,98930.59
2018-09-20T20:55:49.369Z,98931.59
2018-09-20T20:58:20.887Z,98937.47
2018-09-20T21:00:51.643Z,98935.67
2018-09-20T21:03:22.326Z,98934.02
2018-09-20T21:05:53.023Z,98935.34
2018-09-20T21:08:23.588Z,98932.02
2018-09-20T21:10:54.182Z,98931.53
2018-09-20T21:13:24.903Z,98936.01
2018-09-20T21:15:57.896Z,98932.86
2018-09-20T21:18:28.556Z,98935.03
2018-09-20T21:20:59.489Z,98931.71
2018-09-20T21:23:30.251Z,98926.89
2018-09-20T21:26:01.256Z,98924.06
2018-09-20T21:28:31.789Z,98926.42
2018-09-20T21:31:02.615Z,98929.58
2018-09-20T21:33:33.580Z,98938.02
2018-09-20T21:36:04.833Z,98936.05
2018-09-20T21:38:36.069Z,98934.02
2018-09-20T21:41:06.691Z,98935.03
2018-09-20T21:43:37.577Z,98937.02
2018-09-20T21:46:08.132Z,98938.66
2018-09-20T21:48:38.857Z,98932.34
2018-09-20T21:51:10.909Z,98929.69
2018-09-20T21:53:41.721Z,98930.70
2018-09-20T21:56:12.326Z,98923.90
2018-09-20T21:58:43.227Z,98925.40
2018-09-20T22:01:15.408Z,98920.09
2018-09-20T22:03:46.161Z,98924.42
2018-09-20T22:06:16.917Z,98916.78
2018-09-20T22:08:48.113Z,98914.30
2018-09-20T22:11:18.788Z,98906.34
2018-09-20T22:13:49.342Z,98904.66
2018-09-20T22:16:20.441Z,98903.16
2018-09-20T22:18:51.602Z,98901.83
2018-09-20T22:21:22.855Z,98895.37
2018-09-20T22:23:53.316Z,98901.16
2018-09-20T22:26:23.820Z,98889.89
2018-09-20T22:28:54.767Z,98892.89
2018-09-20T22:31:25.948Z,98887.59
2018-09-20T22:33:56.421Z,98889.71
2018-09-20T22:36:27.347Z,98890.23
2018-09-20T22:38:57.927Z,98887.19
2018-09-20T22:41:28.514Z,98887.19
2018-09-20T22:43:59.439Z,98882.85
2018-09-20T22:46:30.176Z,98879.04
2018-09-20T22:49:00.776Z,98881.85
2018-09-20T22:51:31.497Z,98882.82
2018-09-20T22:54:02.185Z,98877.02
2018-09-20T22:56:32.574Z,98875.83
2018-09-20T22:59:03.214Z,98877.16
2018-09-20T23:01:33.566Z,98882.62
2018-09-20T23:04:04.145Z,98882.11
2018-09-20T23:06:34.732Z,98887.72
2018-09-20T23:09:07.409Z,98878.27
2018-09-20T23:11:38.076Z,98879.08
2018-09-20T23:14:08.761Z,98878.77
2018-09-20T23:16:39.227Z,98888.34
2018-09-20T23:19:09.951Z,98883.33
2018-09-20T23:21:40.442Z,98889.13
2018-09-20T23:24:10.884Z,98886.95
2018-09-20T23:26:41.547Z,98881.47
2018-09-20T23:29:11.892Z,98883.94
2018-09-20T23:31:42.412Z,98883.75
2018-09-20T23:34:12.847Z,98877.78
2018-09-20T23:36:43.596Z,98875.30
2018-09-20T23:39:14.463Z,98871.16
2018-09-20T23:41:44.908Z,98874.33
2018-09-20T23:44:15.324Z,98875.79
2018-09-20T23:46:45.864Z,98882.09
2018-09-20T23:49:16.418Z,98874.98
2018-09-20T23:51:46.931Z,98865.50
2018-09-20T23:54:17.432Z,98872.12
2018-09-20T23:56:48.115Z,98879.58
2018-09-20T23:59:18.532Z,98872.94
